Ely, MN (55731)

11:52 PM CDT on March 25, 2017 (GMT -0500)
Ely near the school | | Change Station

Elev 1483 ft 47.90 °N, 91.86 °W | Updated 22 seconds ago

Overcast
Overcast
29.6 °F
Feels Like 30 °F
N
1.0
Wind Variable Wind from ESE

Today
High -- | Low -- °F
--% Chance of Precip.
Yesterday
High -- | Low -- °F
Precip. -- in
Pressure 30.09 in
Visibility 10.0 miles
Clouds Overcast 900 ft
Windchill 30 °F
Dew Point 27 °F
Humidity 91%
Rainfall 0.07 in
Snow Depth Not available.
6:59 AM 7:27 PM
Waning Crescent, 5% visible
METAR KELO 260433Z AUTO 13008KT 10SM OVC009 M01/M03 A3009 RMK AO2
Pressure 30.09 in
Visibility 10.0 miles
Clouds Overcast 900 ft
Windchill 30 °F
Dew Point 27 °F
Humidity 91%
Rainfall 0.07 in
Snow Depth Not available.
6:59 AM 7:27 PM
Waning Crescent, 5% visible
METAR KELO 260433Z AUTO 13008KT 10SM OVC009 M01/M03 A3009 RMK AO2

Get Severe Weather Alerts

Thanks for signing up!

Be on the lookout for a verification email in your inbox.

You'll start receiving the daily forecast at 8 AM.

×

10-Day Weather Forecast

Almanac

Astronomy

Mar. 25, 2017 Rise Set
Actual Time
Civil Twilight
Nautical Twilight
Astronomical Twilight
Moon
Length of Visible Light
Length of Day
Tomorrow will be .
, % of the Moon is Illuminated

Today's Extremes

State Highs State Lows

Community

WunderPhotos

Upload Photos

1,962,540 photos uploaded!

WunderBlog® & News

Nearby

Air Quality

  Air Quality AQ Index Pollutant
Not available.

Snow Depth

Station Depth Elevation

Earthquake Activity

City Distance Mag. Time & Date
Minimum magnitude displayed is 2.5.

Earthquake Activity

City Distance Mag. Time & Date
Minimum magnitude displayed is 2.5.

Coastal Water Temperatures

Place Temperature

Stations

Nearby Weather Stations

Station Location Temp. Windchill Dew Point Humidity Wind Precip. Elev Updated Type
                   

Watches & Warnings

There are currently no watches in effect.